Addison, VT

1:43 AM EST on November 24, 2014 (GMT -0500)
Windy Valley Farm | Change Station
CLOSE
Current Station
Personal Weather Station
Location: Waltham, VT
Elevation: 195 ft
Nearby Weather Stations

Elev 195 ft 44.15 °N, 73.25 °W | Updated 3 minutes ago

Partly Cloudy
Partly Cloudy
51.3 °F
Feels Like 51.3 °F
N
10.5
Wind Variable Wind from South
Gusts 15.0 mph

Today
High -- | Low -- °F
--% Chance of Precip.
Yesterday
High -- | Low -- °F
Precip. -- in
6:59 AM 4:19 PM
Waxing Crescent, 4% visible
Pressure 29.90 in
Visibility 10.0 miles
Clouds Clear
Dew Point 44 °F
Humidity 76%
Rainfall 0.00 in
Snow Depth Not available.
UV 0 out of 12
Pollen .10 out of 12
Air Quality Not available.
Flu Activity Not available.
METAR K6B0 240635Z AUTO 18004KT 10SM CLR 07/04 A2990 RMK AO2 T00700037

More Conditions Fewer Conditions

Pressure 29.90 in
Visibility 10.0 miles
Clouds Clear
Dew Point 44 °F
Humidity 76%
Rainfall 0.00 in
Snow Depth Not available.
UV 0 out of 12
Pollen .10 out of 12
Air Quality Not available.
Flu Activity Not available.
METAR K6B0 240635Z AUTO 18004KT 10SM CLR 07/04 A2990 RMK AO2 T00700037

More Conditions Fewer Conditions

10-Day Weather Forecast

Almanac

Astronomy

Nov. 24, 2014 Rise Set
Actual Time
Civil Twilight
Nautical Twilight
Astronomical Twilight
Moon
Length of Visible Light
Length of Day
Tomorrow will be .
, % of the Moon is Illuminated

Today's Extremes

State Highs State Lows

Community

WunderPhotos

Upload Photos

1,773,294 photos uploaded!

WunderBlogs® & News

Nearby

Air Quality

  Air Quality AQ Index Pollutant
Not available.

Snow Depth

Station Depth Elevation

Earthquake Activity

City Distance Mag. Time & Date
Minimum magnitude displayed is 2.5.

Coastal Water Temperatures

Place Temperature

Nearby Weather Stations